createdAt,value
2018-12-08T00:03:23.639Z,2.43
2018-12-08T00:13:28.414Z,2.30
2018-12-08T00:23:33.475Z,2.30
2018-12-08T00:33:38.209Z,2.13
2018-12-08T00:43:42.869Z,2.20
2018-12-08T00:53:47.804Z,2.20
2018-12-08T01:03:52.625Z,1.83
2018-12-08T01:13:57.675Z,2.50
2018-12-08T01:24:02.292Z,2.30
2018-12-08T01:34:07.093Z,2.30
2018-12-08T01:44:11.825Z,2.40
2018-12-08T01:54:16.832Z,2.40
2018-12-08T02:04:22.500Z,2.10
2018-12-08T02:14:27.433Z,2.30
2018-12-08T02:24:32.501Z,1.80
2018-12-08T02:34:37.491Z,2.10
2018-12-08T02:44:42.851Z,2.10
2018-12-08T02:54:50.670Z,2.00
2018-12-08T03:04:58.246Z,2.57
2018-12-08T03:15:05.737Z,2.40
2018-12-08T03:25:14.454Z,2.23
2018-12-08T03:35:19.175Z,1.70
2018-12-08T03:45:24.020Z,1.70
2018-12-08T03:55:28.604Z,1.80
2018-12-08T04:05:33.610Z,1.57
2018-12-08T04:15:39.043Z,1.60
2018-12-08T04:25:43.765Z,1.50
2018-12-08T10:33:31.798Z,1.50
2018-12-08T10:43:36.550Z,1.30
2018-12-08T10:53:41.256Z,2.10
2018-12-08T11:03:50.178Z,2.23
2018-12-08T11:13:55.783Z,1.80
2018-12-08T11:24:32.637Z,1.80
2018-12-08T11:34:37.429Z,1.50
2018-12-08T11:44:43.514Z,1.23
2018-12-08T11:54:48.302Z,1.30
2018-12-08T12:04:53.116Z,1.20
2018-12-08T12:14:57.859Z,1.10
2018-12-08T12:25:03.230Z,0.90
2018-12-08T12:35:07.959Z,0.80
2018-12-08T12:45:13.039Z,0.80
2018-12-08T12:55:17.917Z,0.53
2018-12-08T13:05:22.792Z,0.60
2018-12-08T13:15:27.370Z,0.50
2018-12-08T13:25:32.184Z,0.40
2018-12-08T13:35:58.227Z,1.13
2018-12-08T13:46:03.386Z,0.60
2018-12-08T13:56:07.943Z,0.90
2018-12-08T14:06:13.390Z,1.70
2018-12-08T14:16:18.817Z,1.40
2018-12-08T14:26:23.615Z,1.00
2018-12-08T14:36:28.335Z,1.50
2018-12-08T14:46:32.967Z,1.63
2018-12-08T14:56:39.332Z,2.67
2018-12-08T15:06:43.915Z,2.20
2018-12-08T15:16:48.563Z,2.20
2018-12-08T15:26:53.405Z,2.00
2018-12-08T15:36:58.154Z,2.37
2018-12-08T15:47:05.653Z,4.37
2018-12-08T15:57:11.676Z,2.57
2018-12-08T16:07:16.567Z,3.10
2018-12-08T16:17:21.352Z,2.40
2018-12-08T16:27:26.065Z,2.93
2018-12-08T16:37:30.925Z,2.00
2018-12-08T16:47:35.590Z,2.53
2018-12-08T16:57:40.181Z,2.00
2018-12-08T17:07:44.843Z,1.90
2018-12-08T17:17:49.541Z,2.00
2018-12-08T17:27:54.299Z,1.60
2018-12-08T17:37:59.366Z,1.70
2018-12-08T17:48:04.098Z,1.83
2018-12-08T17:58:08.966Z,1.47
2018-12-08T18:08:13.613Z,1.60
2018-12-08T18:18:18.239Z,1.30
2018-12-08T18:28:22.875Z,1.40
2018-12-08T18:38:27.597Z,1.63
2018-12-08T18:48:32.351Z,1.20
2018-12-08T18:58:37.242Z,1.40
2018-12-08T19:08:43.658Z,1.50
2018-12-08T19:18:48.291Z,3.33
2018-12-08T19:28:53.545Z,5.00
2018-12-08T19:38:58.604Z,5.20
2018-12-08T19:49:04.211Z,5.33
2018-12-08T19:59:10.802Z,5.63
2018-12-08T20:09:15.356Z,5.57
2018-12-08T20:19:24.610Z,5.57
2018-12-08T20:29:34.846Z,6.27
2018-12-08T20:39:47.539Z,5.67
2018-12-08T20:49:59.397Z,5.43
2018-12-08T21:00:08.818Z,4.83
2018-12-08T21:10:19.026Z,5.00
2018-12-08T21:20:29.307Z,5.03
2018-12-08T21:30:39.509Z,4.90
2018-12-08T21:40:50.892Z,5.17
2018-12-08T21:50:57.163Z,5.00
2018-12-08T22:01:01.826Z,4.83
2018-12-08T22:11:06.598Z,4.57
2018-12-08T22:21:11.278Z,4.90
2018-12-08T22:31:15.917Z,12.70
2018-12-08T22:41:20.759Z,12.00
2018-12-08T22:51:25.640Z,11.20
2018-12-08T23:01:32.531Z,10.60
2018-12-08T23:11:37.814Z,11.53
2018-12-08T23:21:43.118Z,9.93
2018-12-08T23:31:48.125Z,9.47
2018-12-08T23:41:53.105Z,8.57
2018-12-08T23:51:58.339Z,8.53
